Olcott, New York
Current Conditions -  °F | °C
As of 4:53 PM on Saturday 25 Oct 2014 (Local Time) from KIAG Reporting Station
Few Clouds Few Clouds  
Wind Chill: 60°   Ceiling: Unl
Heat Index: 60°   Visibility: 9mi
Dew Point: 47°   Wind: 21mph
Humidity: 62%   Direction: 270°W
Pressure: 29.62"   Gusts: 30mph
Location:  43.34°N, 78.71°W
Report Text: KIAG 252053Z 27018G26KT 9SM FEW022 FEW028 16/08 A2962 RMK AO2 PK WND 26026/2050 SLP031 T01560083 56006
Loading
Personal Weather Stations






























Interactive Weather Map
Tropical Storm Tracking
New forecast layout! Learn more

10-Day Weather Forecast

Advertisements
Track Severe Weather on mobile